sensor_id;sensor_type;location;lat;lon;timestamp;P1;durP1;ratioP1;P2;durP2;ratioP2
19161;SDS011;9713;48.140;11.530;2023-02-15T00:00:32;27.83;;;12.60;;
19161;SDS011;9713;48.140;11.530;2023-02-15T00:04:16;25.27;;;12.73;;
19161;SDS011;9713;48.140;11.530;2023-02-15T00:08:03;24.23;;;13.20;;
19161;SDS011;9713;48.140;11.530;2023-02-15T00:11:47;23.60;;;12.87;;
19161;SDS011;9713;48.140;11.530;2023-02-15T00:15:32;24.27;;;12.40;;
19161;SDS011;9713;48.140;11.530;2023-02-15T00:19:15;24.43;;;12.53;;
19161;SDS011;9713;48.140;11.530;2023-02-15T00:22:59;25.37;;;12.53;;
19161;SDS011;9713;48.140;11.530;2023-02-15T00:26:42;22.57;;;12.80;;
19161;SDS011;9713;48.140;11.530;2023-02-15T00:30:28;22.63;;;13.10;;
19161;SDS011;9713;48.140;11.530;2023-02-15T00:34:13;22.40;;;12.77;;
19161;SDS011;9713;48.140;11.530;2023-02-15T00:37:57;22.43;;;12.87;;
19161;SDS011;9713;48.140;11.530;2023-02-15T00:41:40;26.83;;;12.50;;
19161;SDS011;9713;48.140;11.530;2023-02-15T00:45:22;26.07;;;12.67;;
19161;SDS011;9713;48.140;11.530;2023-02-15T00:49:06;23.80;;;12.60;;
19161;SDS011;9713;48.140;11.530;2023-02-15T00:52:49;21.67;;;12.53;;
19161;SDS011;9713;48.140;11.530;2023-02-15T00:56:32;20.20;;;12.17;;
19161;SDS011;9713;48.140;11.530;2023-02-15T01:00:15;22.73;;;12.23;;
19161;SDS011;9713;48.140;11.530;2023-02-15T01:03:58;21.93;;;12.37;;
19161;SDS011;9713;48.140;11.530;2023-02-15T01:07:42;22.00;;;12.57;;
19161;SDS011;9713;48.140;11.530;2023-02-15T01:11:24;22.47;;;12.23;;
19161;SDS011;9713;48.140;11.530;2023-02-15T01:15:07;19.93;;;11.93;;
19161;SDS011;9713;48.140;11.530;2023-02-15T01:18:50;20.43;;;11.93;;
19161;SDS011;9713;48.140;11.530;2023-02-15T01:22:33;18.00;;;11.43;;
19161;SDS011;9713;48.140;11.530;2023-02-15T01:26:17;18.30;;;11.13;;
19161;SDS011;9713;48.140;11.530;2023-02-15T01:30:00;21.37;;;11.73;;
19161;SDS011;9713;48.140;11.530;2023-02-15T01:33:43;20.90;;;12.07;;
19161;SDS011;9713;48.140;11.530;2023-02-15T01:37:29;20.27;;;11.37;;
19161;SDS011;9713;48.140;11.530;2023-02-15T01:41:12;16.93;;;10.67;;
19161;SDS011;9713;48.140;11.530;2023-02-15T01:45:17;17.67;;;11.00;;
19161;SDS011;9713;48.140;11.530;2023-02-15T01:49:03;19.43;;;10.50;;
19161;SDS011;9713;48.140;11.530;2023-02-15T01:52:50;18.87;;;11.03;;
19161;SDS011;9713;48.140;11.530;2023-02-15T01:56:35;16.70;;;10.27;;
19161;SDS011;9713;48.140;11.530;2023-02-15T02:00:21;16.33;;;8.90;;
19161;SDS011;9713;48.140;11.530;2023-02-15T02:04:06;18.13;;;10.07;;
19161;SDS011;9713;48.140;11.530;2023-02-15T02:07:55;15.87;;;9.77;;
19161;SDS011;9713;48.140;11.530;2023-02-15T02:11:38;17.30;;;9.27;;
19161;SDS011;9713;48.140;11.530;2023-02-15T02:15:23;16.73;;;9.93;;
19161;SDS011;9713;48.140;11.530;2023-02-15T02:23:23;15.63;;;9.30;;
19161;SDS011;9713;48.140;11.530;2023-02-15T02:27:23;14.17;;;8.77;;
19161;SDS011;9713;48.140;11.530;2023-02-15T02:31:18;16.00;;;8.60;;
19161;SDS011;9713;48.140;11.530;2023-02-15T02:35:23;15.93;;;9.80;;
19161;SDS011;9713;48.140;11.530;2023-02-15T02:39:12;15.70;;;9.50;;
19161;SDS011;9713;48.140;11.530;2023-02-15T02:43:04;14.27;;;9.13;;
19161;SDS011;9713;48.140;11.530;2023-02-15T02:46:50;16.63;;;9.77;;
19161;SDS011;9713;48.140;11.530;2023-02-15T02:50:38;16.53;;;9.33;;
19161;SDS011;9713;48.140;11.530;2023-02-15T02:54:21;15.83;;;9.97;;
19161;SDS011;9713;48.140;11.530;2023-02-15T02:58:05;16.57;;;9.50;;
19161;SDS011;9713;48.140;11.530;2023-02-15T03:01:52;17.27;;;10.17;;
19161;SDS011;9713;48.140;11.530;2023-02-15T03:05:39;16.00;;;9.73;;
19161;SDS011;9713;48.140;11.530;2023-02-15T03:09:25;15.90;;;9.60;;
19161;SDS011;9713;48.140;11.530;2023-02-15T03:13:15;17.63;;;10.03;;
19161;SDS011;9713;48.140;11.530;2023-02-15T03:16:58;18.63;;;9.97;;
19161;SDS011;9713;48.140;11.530;2023-02-15T03:20:43;20.80;;;9.73;;
19161;SDS011;9713;48.140;11.530;2023-02-15T03:24:27;40.63;;;10.70;;
19161;SDS011;9713;48.140;11.530;2023-02-15T03:28:14;17.07;;;9.20;;
19161;SDS011;9713;48.140;11.530;2023-02-15T03:32:01;37.93;;;9.57;;
19161;SDS011;9713;48.140;11.530;2023-02-15T03:35:49;17.67;;;9.47;;
19161;SDS011;9713;48.140;11.530;2023-02-15T03:39:37;15.73;;;9.77;;
19161;SDS011;9713;48.140;11.530;2023-02-15T03:43:23;15.97;;;9.53;;
19161;SDS011;9713;48.140;11.530;2023-02-15T03:47:10;29.20;;;9.77;;
19161;SDS011;9713;48.140;11.530;2023-02-15T03:50:58;15.03;;;9.00;;
19161;SDS011;9713;48.140;11.530;2023-02-15T03:55:01;16.73;;;9.10;;
19161;SDS011;9713;48.140;11.530;2023-02-15T03:58:44;14.83;;;9.17;;
19161;SDS011;9713;48.140;11.530;2023-02-15T04:02:47;17.13;;;10.00;;
19161;SDS011;9713;48.140;11.530;2023-02-15T04:06:44;17.80;;;9.93;;
19161;SDS011;9713;48.140;11.530;2023-02-15T04:10:27;15.73;;;9.37;;
19161;SDS011;9713;48.140;11.530;2023-02-15T04:14:27;18.53;;;9.13;;
19161;SDS011;9713;48.140;11.530;2023-02-15T04:18:27;24.70;;;10.40;;
19161;SDS011;9713;48.140;11.530;2023-02-15T04:22:28;26.03;;;9.97;;
19161;SDS011;9713;48.140;11.530;2023-02-15T04:26:29;25.13;;;9.83;;
19161;SDS011;9713;48.140;11.530;2023-02-15T04:30:12;20.03;;;9.90;;
19161;SDS011;9713;48.140;11.530;2023-02-15T04:33:56;17.37;;;9.87;;
19161;SDS011;9713;48.140;11.530;2023-02-15T04:37:40;17.13;;;9.77;;
19161;SDS011;9713;48.140;11.530;2023-02-15T04:41:23;15.23;;;9.37;;
19161;SDS011;9713;48.140;11.530;2023-02-15T04:45:06;22.47;;;10.93;;
19161;SDS011;9713;48.140;11.530;2023-02-15T04:48:49;21.63;;;8.97;;
19161;SDS011;9713;48.140;11.530;2023-02-15T04:52:32;15.50;;;9.20;;
19161;SDS011;9713;48.140;11.530;2023-02-15T04:56:16;16.83;;;9.60;;
19161;SDS011;9713;48.140;11.530;2023-02-15T04:59:59;14.70;;;9.00;;
19161;SDS011;9713;48.140;11.530;2023-02-15T05:03:41;23.90;;;10.07;;
19161;SDS011;9713;48.140;11.530;2023-02-15T05:07:24;18.07;;;9.80;;
19161;SDS011;9713;48.140;11.530;2023-02-15T05:11:07;16.97;;;9.77;;
19161;SDS011;9713;48.140;11.530;2023-02-15T05:14:51;24.17;;;10.47;;
19161;SDS011;9713;48.140;11.530;2023-02-15T05:18:33;18.47;;;10.10;;
19161;SDS011;9713;48.140;11.530;2023-02-15T05:22:16;18.00;;;10.13;;
19161;SDS011;9713;48.140;11.530;2023-02-15T05:25:59;15.57;;;9.37;;
19161;SDS011;9713;48.140;11.530;2023-02-15T05:30:00;22.13;;;10.30;;
19161;SDS011;9713;48.140;11.530;2023-02-15T05:33:43;17.70;;;10.47;;
19161;SDS011;9713;48.140;11.530;2023-02-15T05:37:26;18.60;;;10.33;;
19161;SDS011;9713;48.140;11.530;2023-02-15T05:41:09;19.07;;;10.67;;
19161;SDS011;9713;48.140;11.530;2023-02-15T05:44:53;18.90;;;10.80;;
19161;SDS011;9713;48.140;11.530;2023-02-15T05:48:37;18.30;;;10.93;;
19161;SDS011;9713;48.140;11.530;2023-02-15T05:52:20;21.17;;;11.47;;
19161;SDS011;9713;48.140;11.530;2023-02-15T05:56:04;19.47;;;10.63;;
19161;SDS011;9713;48.140;11.530;2023-02-15T05:59:48;22.57;;;10.87;;
19161;SDS011;9713;48.140;11.530;2023-02-15T06:03:30;19.37;;;10.80;;
19161;SDS011;9713;48.140;11.530;2023-02-15T06:07:14;20.10;;;10.70;;
19161;SDS011;9713;48.140;11.530;2023-02-15T06:10:57;19.57;;;10.70;;
19161;SDS011;9713;48.140;11.530;2023-02-15T06:14:40;21.60;;;10.53;;
19161;SDS011;9713;48.140;11.530;2023-02-15T06:18:22;19.33;;;11.00;;
19161;SDS011;9713;48.140;11.530;2023-02-15T06:22:05;19.50;;;11.03;;
19161;SDS011;9713;48.140;11.530;2023-02-15T06:25:51;21.80;;;10.90;;
19161;SDS011;9713;48.140;11.530;2023-02-15T06:29:34;19.50;;;10.90;;
19161;SDS011;9713;48.140;11.530;2023-02-15T06:33:16;19.93;;;11.27;;
19161;SDS011;9713;48.140;11.530;2023-02-15T06:36:59;19.13;;;10.77;;
19161;SDS011;9713;48.140;11.530;2023-02-15T06:40:42;18.90;;;10.57;;
19161;SDS011;9713;48.140;11.530;2023-02-15T06:44:26;19.97;;;11.20;;
19161;SDS011;9713;48.140;11.530;2023-02-15T06:48:09;22.37;;;12.03;;
19161;SDS011;9713;48.140;11.530;2023-02-15T06:51:52;21.43;;;11.63;;
19161;SDS011;9713;48.140;11.530;2023-02-15T06:55:35;21.30;;;11.60;;
19161;SDS011;9713;48.140;11.530;2023-02-15T06:59:19;20.50;;;11.60;;
19161;SDS011;9713;48.140;11.530;2023-02-15T07:03:03;19.97;;;11.07;;
19161;SDS011;9713;48.140;11.530;2023-02-15T07:06:46;19.83;;;11.43;;
19161;SDS011;9713;48.140;11.530;2023-02-15T07:10:29;20.57;;;11.23;;
19161;SDS011;9713;48.140;11.530;2023-02-15T07:14:12;19.83;;;11.20;;
19161;SDS011;9713;48.140;11.530;2023-02-15T07:17:54;21.77;;;12.23;;
19161;SDS011;9713;48.140;11.530;2023-02-15T07:21:38;20.17;;;11.67;;
19161;SDS011;9713;48.140;11.530;2023-02-15T07:25:21;20.73;;;11.47;;
19161;SDS011;9713;48.140;11.530;2023-02-15T07:29:10;22.93;;;12.20;;
19161;SDS011;9713;48.140;11.530;2023-02-15T07:32:54;25.13;;;12.47;;
19161;SDS011;9713;48.140;11.530;2023-02-15T07:36:56;22.43;;;11.53;;
19161;SDS011;9713;48.140;11.530;2023-02-15T07:40:39;23.77;;;11.40;;
19161;SDS011;9713;48.140;11.530;2023-02-15T07:44:22;19.70;;;11.40;;
19161;SDS011;9713;48.140;11.530;2023-02-15T07:48:05;20.87;;;11.93;;
19161;SDS011;9713;48.140;11.530;2023-02-15T07:51:48;23.20;;;11.77;;
19161;SDS011;9713;48.140;11.530;2023-02-15T07:55:32;21.03;;;12.70;;
19161;SDS011;9713;48.140;11.530;2023-02-15T07:59:15;25.63;;;12.67;;
19161;SDS011;9713;48.140;11.530;2023-02-15T08:02:58;24.33;;;13.60;;
19161;SDS011;9713;48.140;11.530;2023-02-15T08:06:56;23.33;;;13.13;;
19161;SDS011;9713;48.140;11.530;2023-02-15T08:10:40;25.70;;;13.80;;
19161;SDS011;9713;48.140;11.530;2023-02-15T08:14:39;25.93;;;13.73;;
19161;SDS011;9713;48.140;11.530;2023-02-15T08:18:22;24.53;;;12.53;;
19161;SDS011;9713;48.140;11.530;2023-02-15T08:22:05;23.57;;;13.10;;
19161;SDS011;9713;48.140;11.530;2023-02-15T08:25:50;27.20;;;13.63;;
19161;SDS011;9713;48.140;11.530;2023-02-15T08:29:34;28.80;;;13.87;;
19161;SDS011;9713;48.140;11.530;2023-02-15T08:33:17;23.03;;;12.83;;
19161;SDS011;9713;48.140;11.530;2023-02-15T08:37:00;22.50;;;13.27;;
19161;SDS011;9713;48.140;11.530;2023-02-15T08:40:43;26.13;;;12.93;;
19161;SDS011;9713;48.140;11.530;2023-02-15T08:44:27;27.43;;;13.80;;
19161;SDS011;9713;48.140;11.530;2023-02-15T08:48:10;26.60;;;13.83;;
19161;SDS011;9713;48.140;11.530;2023-02-15T08:51:55;27.43;;;13.73;;
19161;SDS011;9713;48.140;11.530;2023-02-15T08:55:38;25.57;;;13.27;;
19161;SDS011;9713;48.140;11.530;2023-02-15T08:59:22;28.57;;;13.03;;
19161;SDS011;9713;48.140;11.530;2023-02-15T09:03:07;25.97;;;14.07;;
19161;SDS011;9713;48.140;11.530;2023-02-15T09:06:50;25.47;;;14.37;;
19161;SDS011;9713;48.140;11.530;2023-02-15T09:10:33;25.73;;;13.97;;
19161;SDS011;9713;48.140;11.530;2023-02-15T09:14:19;25.73;;;14.33;;
19161;SDS011;9713;48.140;11.530;2023-02-15T09:18:04;24.60;;;14.00;;
19161;SDS011;9713;48.140;11.530;2023-02-15T09:21:50;30.83;;;14.40;;
19161;SDS011;9713;48.140;11.530;2023-02-15T09:25:33;31.10;;;14.43;;
19161;SDS011;9713;48.140;11.530;2023-02-15T09:29:17;24.90;;;14.07;;
19161;SDS011;9713;48.140;11.530;2023-02-15T09:33:00;26.87;;;14.57;;
19161;SDS011;9713;48.140;11.530;2023-02-15T09:36:45;26.47;;;14.60;;
19161;SDS011;9713;48.140;11.530;2023-02-15T09:40:33;23.57;;;13.87;;
19161;SDS011;9713;48.140;11.530;2023-02-15T09:44:25;25.73;;;13.77;;
19161;SDS011;9713;48.140;11.530;2023-02-15T09:48:25;22.80;;;13.47;;
19161;SDS011;9713;48.140;11.530;2023-02-15T09:56:23;27.17;;;14.77;;
19161;SDS011;9713;48.140;11.530;2023-02-15T10:00:12;26.63;;;15.57;;
19161;SDS011;9713;48.140;11.530;2023-02-15T10:04:09;26.43;;;15.10;;
19161;SDS011;9713;48.140;11.530;2023-02-15T10:08:10;23.87;;;13.80;;
19161;SDS011;9713;48.140;11.530;2023-02-15T10:12:05;27.00;;;14.83;;
19161;SDS011;9713;48.140;11.530;2023-02-15T10:16:01;27.17;;;14.30;;
19161;SDS011;9713;48.140;11.530;2023-02-15T10:19:52;25.23;;;14.13;;
19161;SDS011;9713;48.140;11.530;2023-02-15T10:23:49;30.57;;;14.63;;
19161;SDS011;9713;48.140;11.530;2023-02-15T10:27:41;27.03;;;14.40;;
19161;SDS011;9713;48.140;11.530;2023-02-15T10:31:28;25.57;;;14.73;;
19161;SDS011;9713;48.140;11.530;2023-02-15T10:35:17;29.57;;;16.37;;
19161;SDS011;9713;48.140;11.530;2023-02-15T10:39:04;34.13;;;18.30;;
19161;SDS011;9713;48.140;11.530;2023-02-15T10:42:57;27.90;;;15.00;;
19161;SDS011;9713;48.140;11.530;2023-02-15T10:47:18;30.67;;;15.50;;
19161;SDS011;9713;48.140;11.530;2023-02-15T10:51:10;30.07;;;15.50;;
19161;SDS011;9713;48.140;11.530;2023-02-15T10:54:59;27.07;;;15.50;;
19161;SDS011;9713;48.140;11.530;2023-02-15T10:58:51;29.40;;;15.70;;
19161;SDS011;9713;48.140;11.530;2023-02-15T11:02:49;29.40;;;14.87;;
19161;SDS011;9713;48.140;11.530;2023-02-15T11:06:43;29.57;;;16.53;;
19161;SDS011;9713;48.140;11.530;2023-02-15T11:10:35;31.37;;;18.07;;
19161;SDS011;9713;48.140;11.530;2023-02-15T11:14:23;34.27;;;17.07;;
19161;SDS011;9713;48.140;11.530;2023-02-15T11:18:13;28.90;;;17.03;;
19161;SDS011;9713;48.140;11.530;2023-02-15T11:21:59;37.77;;;16.73;;
19161;SDS011;9713;48.140;11.530;2023-02-15T11:25:44;31.13;;;16.80;;
19161;SDS011;9713;48.140;11.530;2023-02-15T11:29:31;26.47;;;15.90;;
19161;SDS011;9713;48.140;11.530;2023-02-15T11:33:15;34.17;;;16.67;;
19161;SDS011;9713;48.140;11.530;2023-02-15T11:37:01;29.57;;;16.30;;
19161;SDS011;9713;48.140;11.530;2023-02-15T11:40:47;30.73;;;16.77;;
19161;SDS011;9713;48.140;11.530;2023-02-15T11:44:33;35.70;;;18.07;;
19161;SDS011;9713;48.140;11.530;2023-02-15T11:48:17;39.33;;;18.93;;
19161;SDS011;9713;48.140;11.530;2023-02-15T11:52:00;39.37;;;19.10;;
19161;SDS011;9713;48.140;11.530;2023-02-15T11:55:45;32.13;;;18.50;;
19161;SDS011;9713;48.140;11.530;2023-02-15T11:59:29;34.97;;;19.20;;
19161;SDS011;9713;48.140;11.530;2023-02-15T12:03:22;42.23;;;22.97;;
19161;SDS011;9713;48.140;11.530;2023-02-15T12:07:11;34.53;;;19.50;;
19161;SDS011;9713;48.140;11.530;2023-02-15T12:10:57;39.70;;;20.37;;
19161;SDS011;9713;48.140;11.530;2023-02-15T12:14:47;38.73;;;19.83;;
19161;SDS011;9713;48.140;11.530;2023-02-15T12:18:35;42.33;;;21.30;;
19161;SDS011;9713;48.140;11.530;2023-02-15T12:22:20;34.90;;;19.37;;
19161;SDS011;9713;48.140;11.530;2023-02-15T12:26:05;32.97;;;18.80;;
19161;SDS011;9713;48.140;11.530;2023-02-15T12:29:49;39.73;;;21.87;;
19161;SDS011;9713;48.140;11.530;2023-02-15T12:33:34;34.63;;;21.17;;
19161;SDS011;9713;48.140;11.530;2023-02-15T12:37:19;38.77;;;20.33;;
19161;SDS011;9713;48.140;11.530;2023-02-15T12:41:04;37.30;;;20.67;;
19161;SDS011;9713;48.140;11.530;2023-02-15T12:44:58;36.63;;;19.60;;
19161;SDS011;9713;48.140;11.530;2023-02-15T12:48:42;37.93;;;20.63;;
19161;SDS011;9713;48.140;11.530;2023-02-15T12:52:25;36.63;;;20.40;;
19161;SDS011;9713;48.140;11.530;2023-02-15T12:56:08;32.03;;;19.97;;
19161;SDS011;9713;48.140;11.530;2023-02-15T12:59:53;36.17;;;19.93;;
19161;SDS011;9713;48.140;11.530;2023-02-15T13:03:38;35.63;;;18.27;;
19161;SDS011;9713;48.140;11.530;2023-02-15T13:07:29;34.80;;;18.17;;
19161;SDS011;9713;48.140;11.530;2023-02-15T13:11:13;30.93;;;17.27;;
19161;SDS011;9713;48.140;11.530;2023-02-15T13:15:02;28.87;;;18.27;;
19161;SDS011;9713;48.140;11.530;2023-02-15T13:19:08;35.30;;;18.30;;
19161;SDS011;9713;48.140;11.530;2023-02-15T13:22:54;31.77;;;17.43;;
19161;SDS011;9713;48.140;11.530;2023-02-15T13:26:41;40.70;;;18.27;;
19161;SDS011;9713;48.140;11.530;2023-02-15T13:30:27;29.40;;;17.37;;
19161;SDS011;9713;48.140;11.530;2023-02-15T13:34:16;25.13;;;16.13;;
19161;SDS011;9713;48.140;11.530;2023-02-15T13:42:25;29.70;;;16.53;;
19161;SDS011;9713;48.140;11.530;2023-02-15T13:46:13;33.30;;;17.20;;
19161;SDS011;9713;48.140;11.530;2023-02-15T13:50:14;28.13;;;16.23;;
19161;SDS011;9713;48.140;11.530;2023-02-15T13:54:18;31.03;;;16.83;;
19161;SDS011;9713;48.140;11.530;2023-02-15T13:58:23;25.13;;;15.90;;
19161;SDS011;9713;48.140;11.530;2023-02-15T14:02:25;23.57;;;15.07;;
19161;SDS011;9713;48.140;11.530;2023-02-15T14:06:31;22.27;;;14.60;;
19161;SDS011;9713;48.140;11.530;2023-02-15T14:10:31;30.43;;;15.43;;
19161;SDS011;9713;48.140;11.530;2023-02-15T14:18:34;29.17;;;16.17;;
19161;SDS011;9713;48.140;11.530;2023-02-15T14:22:21;22.10;;;14.77;;
19161;SDS011;9713;48.140;11.530;2023-02-15T14:26:10;21.70;;;14.77;;
19161;SDS011;9713;48.140;11.530;2023-02-15T14:29:58;31.87;;;14.10;;
19161;SDS011;9713;48.140;11.530;2023-02-15T14:33:43;26.83;;;14.37;;
19161;SDS011;9713;48.140;11.530;2023-02-15T14:37:36;20.90;;;13.50;;
19161;SDS011;9713;48.140;11.530;2023-02-15T14:41:25;20.37;;;13.33;;
19161;SDS011;9713;48.140;11.530;2023-02-15T14:45:17;25.00;;;13.00;;
19161;SDS011;9713;48.140;11.530;2023-02-15T14:49:04;24.70;;;13.80;;
19161;SDS011;9713;48.140;11.530;2023-02-15T14:57:23;19.03;;;12.57;;
19161;SDS011;9713;48.140;11.530;2023-02-15T15:01:08;22.00;;;12.57;;
19161;SDS011;9713;48.140;11.530;2023-02-15T15:04:56;24.10;;;15.17;;
19161;SDS011;9713;48.140;11.530;2023-02-15T15:08:41;20.37;;;13.70;;
19161;SDS011;9713;48.140;11.530;2023-02-15T15:12:37;34.93;;;14.37;;
19161;SDS011;9713;48.140;11.530;2023-02-15T15:16:31;23.90;;;14.97;;
19161;SDS011;9713;48.140;11.530;2023-02-15T15:20:43;25.47;;;14.53;;
19161;SDS011;9713;48.140;11.530;2023-02-15T15:24:50;28.40;;;14.30;;
19161;SDS011;9713;48.140;11.530;2023-02-15T15:28:54;21.83;;;14.77;;
19161;SDS011;9713;48.140;11.530;2023-02-15T15:32:40;25.27;;;14.87;;
19161;SDS011;9713;48.140;11.530;2023-02-15T15:40:40;23.17;;;14.60;;
19161;SDS011;9713;48.140;11.530;2023-02-15T15:44:36;31.50;;;17.00;;
19161;SDS011;9713;48.140;11.530;2023-02-15T15:48:38;29.07;;;14.60;;
19161;SDS011;9713;48.140;11.530;2023-02-15T15:52:22;25.60;;;15.30;;
19161;SDS011;9713;48.140;11.530;2023-02-15T15:56:06;28.20;;;15.27;;
19161;SDS011;9713;48.140;11.530;2023-02-15T15:59:54;29.93;;;15.03;;
19161;SDS011;9713;48.140;11.530;2023-02-15T16:03:47;31.47;;;16.03;;
19161;SDS011;9713;48.140;11.530;2023-02-15T16:07:31;27.03;;;14.57;;
19161;SDS011;9713;48.140;11.530;2023-02-15T16:11:14;23.50;;;15.67;;
19161;SDS011;9713;48.140;11.530;2023-02-15T16:15:02;33.03;;;15.70;;
19161;SDS011;9713;48.140;11.530;2023-02-15T16:18:49;28.97;;;15.57;;
19161;SDS011;9713;48.140;11.530;2023-02-15T16:22:32;23.87;;;15.30;;
19161;SDS011;9713;48.140;11.530;2023-02-15T16:26:15;30.13;;;15.07;;
19161;SDS011;9713;48.140;11.530;2023-02-15T16:30:23;26.90;;;16.63;;
19161;SDS011;9713;48.140;11.530;2023-02-15T16:34:09;27.70;;;16.87;;
19161;SDS011;9713;48.140;11.530;2023-02-15T16:37:56;31.37;;;16.50;;
19161;SDS011;9713;48.140;11.530;2023-02-15T16:41:39;26.00;;;16.47;;
19161;SDS011;9713;48.140;11.530;2023-02-15T16:45:28;27.83;;;16.20;;
19161;SDS011;9713;48.140;11.530;2023-02-15T16:49:14;32.13;;;16.77;;
19161;SDS011;9713;48.140;11.530;2023-02-15T16:52:58;32.27;;;16.60;;
19161;SDS011;9713;48.140;11.530;2023-02-15T16:56:42;31.87;;;17.67;;
19161;SDS011;9713;48.140;11.530;2023-02-15T17:00:30;32.83;;;17.80;;
19161;SDS011;9713;48.140;11.530;2023-02-15T17:04:21;24.90;;;17.10;;
19161;SDS011;9713;48.140;11.530;2023-02-15T17:08:13;32.37;;;18.20;;
19161;SDS011;9713;48.140;11.530;2023-02-15T17:11:57;31.90;;;17.63;;
19161;SDS011;9713;48.140;11.530;2023-02-15T17:15:46;35.23;;;19.43;;
19161;SDS011;9713;48.140;11.530;2023-02-15T17:19:56;34.53;;;19.20;;
19161;SDS011;9713;48.140;11.530;2023-02-15T17:23:40;29.43;;;18.83;;
19161;SDS011;9713;48.140;11.530;2023-02-15T17:27:24;33.53;;;18.17;;
19161;SDS011;9713;48.140;11.530;2023-02-15T17:31:12;30.53;;;16.67;;
19161;SDS011;9713;48.140;11.530;2023-02-15T17:35:01;31.97;;;18.13;;
19161;SDS011;9713;48.140;11.530;2023-02-15T17:38:59;29.90;;;17.17;;
19161;SDS011;9713;48.140;11.530;2023-02-15T17:42:45;30.97;;;18.40;;
19161;SDS011;9713;48.140;11.530;2023-02-15T17:46:30;30.90;;;17.87;;
19161;SDS011;9713;48.140;11.530;2023-02-15T17:50:17;36.37;;;19.60;;
19161;SDS011;9713;48.140;11.530;2023-02-15T17:54:02;41.60;;;21.50;;
19161;SDS011;9713;48.140;11.530;2023-02-15T17:58:04;34.13;;;19.00;;
19161;SDS011;9713;48.140;11.530;2023-02-15T18:01:49;32.67;;;18.10;;
19161;SDS011;9713;48.140;11.530;2023-02-15T18:05:50;29.40;;;17.23;;
19161;SDS011;9713;48.140;11.530;2023-02-15T18:09:50;31.33;;;17.53;;
19161;SDS011;9713;48.140;11.530;2023-02-15T18:13:50;29.60;;;17.67;;
19161;SDS011;9713;48.140;11.530;2023-02-15T18:17:35;31.03;;;18.50;;
19161;SDS011;9713;48.140;11.530;2023-02-15T18:21:19;29.90;;;17.20;;
19161;SDS011;9713;48.140;11.530;2023-02-15T18:25:02;30.63;;;17.23;;
19161;SDS011;9713;48.140;11.530;2023-02-15T18:28:45;33.17;;;18.53;;
19161;SDS011;9713;48.140;11.530;2023-02-15T18:32:30;49.33;;;25.47;;
19161;SDS011;9713;48.140;11.530;2023-02-15T18:36:17;38.97;;;19.60;;
19161;SDS011;9713;48.140;11.530;2023-02-15T18:40:04;32.60;;;18.30;;
19161;SDS011;9713;48.140;11.530;2023-02-15T18:43:48;34.73;;;18.83;;
19161;SDS011;9713;48.140;11.530;2023-02-15T18:47:32;32.07;;;18.40;;
19161;SDS011;9713;48.140;11.530;2023-02-15T18:51:19;37.70;;;20.30;;
19161;SDS011;9713;48.140;11.530;2023-02-15T18:55:03;35.80;;;19.30;;
19161;SDS011;9713;48.140;11.530;2023-02-15T18:58:51;36.60;;;20.07;;
19161;SDS011;9713;48.140;11.530;2023-02-15T19:02:34;32.80;;;18.67;;
19161;SDS011;9713;48.140;11.530;2023-02-15T19:06:19;33.60;;;18.37;;
19161;SDS011;9713;48.140;11.530;2023-02-15T19:10:03;34.37;;;19.47;;
19161;SDS011;9713;48.140;11.530;2023-02-15T19:13:48;32.80;;;18.30;;
19161;SDS011;9713;48.140;11.530;2023-02-15T19:17:31;34.93;;;18.57;;
19161;SDS011;9713;48.140;11.530;2023-02-15T19:21:14;30.80;;;17.67;;
19161;SDS011;9713;48.140;11.530;2023-02-15T19:25:00;34.13;;;18.27;;
19161;SDS011;9713;48.140;11.530;2023-02-15T19:28:45;30.33;;;17.37;;
19161;SDS011;9713;48.140;11.530;2023-02-15T19:32:27;31.27;;;17.30;;
19161;SDS011;9713;48.140;11.530;2023-02-15T19:36:13;31.63;;;17.50;;
19161;SDS011;9713;48.140;11.530;2023-02-15T19:39:58;32.23;;;17.67;;
19161;SDS011;9713;48.140;11.530;2023-02-15T19:43:43;32.17;;;17.63;;
19161;SDS011;9713;48.140;11.530;2023-02-15T19:47:33;32.47;;;17.53;;
19161;SDS011;9713;48.140;11.530;2023-02-15T19:51:15;35.87;;;18.00;;
19161;SDS011;9713;48.140;11.530;2023-02-15T19:55:00;31.77;;;17.67;;
19161;SDS011;9713;48.140;11.530;2023-02-15T19:58:43;41.30;;;18.43;;
19161;SDS011;9713;48.140;11.530;2023-02-15T20:02:26;35.87;;;17.77;;
19161;SDS011;9713;48.140;11.530;2023-02-15T20:06:09;32.43;;;17.43;;
19161;SDS011;9713;48.140;11.530;2023-02-15T20:09:55;30.83;;;17.33;;
19161;SDS011;9713;48.140;11.530;2023-02-15T20:13:39;33.13;;;18.23;;
19161;SDS011;9713;48.140;11.530;2023-02-15T20:17:22;36.73;;;17.90;;
19161;SDS011;9713;48.140;11.530;2023-02-15T20:21:04;33.40;;;17.63;;
19161;SDS011;9713;48.140;11.530;2023-02-15T20:24:51;30.50;;;16.87;;
19161;SDS011;9713;48.140;11.530;2023-02-15T20:28:35;34.30;;;17.87;;
19161;SDS011;9713;48.140;11.530;2023-02-15T20:32:19;32.70;;;17.07;;
19161;SDS011;9713;48.140;11.530;2023-02-15T20:36:03;29.97;;;16.47;;
19161;SDS011;9713;48.140;11.530;2023-02-15T20:39:46;30.10;;;16.63;;
19161;SDS011;9713;48.140;11.530;2023-02-15T20:43:28;29.70;;;16.67;;
19161;SDS011;9713;48.140;11.530;2023-02-15T20:47:11;32.67;;;16.90;;
19161;SDS011;9713;48.140;11.530;2023-02-15T20:50:55;31.67;;;17.17;;
19161;SDS011;9713;48.140;11.530;2023-02-15T20:54:39;34.77;;;18.67;;
19161;SDS011;9713;48.140;11.530;2023-02-15T20:58:22;29.97;;;16.80;;
19161;SDS011;9713;48.140;11.530;2023-02-15T21:02:11;32.50;;;17.63;;
19161;SDS011;9713;48.140;11.530;2023-02-15T21:05:58;33.10;;;17.73;;
19161;SDS011;9713;48.140;11.530;2023-02-15T21:09:42;32.10;;;17.13;;
19161;SDS011;9713;48.140;11.530;2023-02-15T21:13:25;34.83;;;18.50;;
19161;SDS011;9713;48.140;11.530;2023-02-15T21:17:09;34.67;;;18.27;;
19161;SDS011;9713;48.140;11.530;2023-02-15T21:20:53;38.67;;;19.20;;
19161;SDS011;9713;48.140;11.530;2023-02-15T21:24:38;36.60;;;18.47;;
19161;SDS011;9713;48.140;11.530;2023-02-15T21:28:26;38.30;;;20.10;;
19161;SDS011;9713;48.140;11.530;2023-02-15T21:32:09;34.60;;;18.73;;
19161;SDS011;9713;48.140;11.530;2023-02-15T21:35:53;33.03;;;17.40;;
19161;SDS011;9713;48.140;11.530;2023-02-15T21:39:38;65.17;;;27.17;;
19161;SDS011;9713;48.140;11.530;2023-02-15T21:43:22;43.80;;;21.57;;
19161;SDS011;9713;48.140;11.530;2023-02-15T21:47:24;36.17;;;19.50;;
19161;SDS011;9713;48.140;11.530;2023-02-15T21:51:28;35.63;;;19.13;;
19161;SDS011;9713;48.140;11.530;2023-02-15T21:55:30;84.47;;;41.93;;
19161;SDS011;9713;48.140;11.530;2023-02-15T21:59:13;38.17;;;21.03;;
19161;SDS011;9713;48.140;11.530;2023-02-15T22:02:57;36.57;;;19.37;;
19161;SDS011;9713;48.140;11.530;2023-02-15T22:06:41;33.73;;;18.10;;
19161;SDS011;9713;48.140;11.530;2023-02-15T22:10:24;34.57;;;19.00;;
19161;SDS011;9713;48.140;11.530;2023-02-15T22:14:31;32.33;;;16.93;;
19161;SDS011;9713;48.140;11.530;2023-02-15T22:18:18;33.87;;;18.00;;
19161;SDS011;9713;48.140;11.530;2023-02-15T22:22:02;30.33;;;17.80;;
19161;SDS011;9713;48.140;11.530;2023-02-15T22:25:47;36.17;;;18.43;;
19161;SDS011;9713;48.140;11.530;2023-02-15T22:29:36;32.93;;;18.43;;
19161;SDS011;9713;48.140;11.530;2023-02-15T22:33:22;33.67;;;19.67;;
19161;SDS011;9713;48.140;11.530;2023-02-15T22:37:07;37.77;;;20.73;;